createdAt,value
2022-12-09T00:03:45.344Z,14.98
2022-12-09T00:08:48.465Z,24.05
2022-12-09T00:13:51.483Z,15.80
2022-12-09T00:18:53.764Z,13.10
2022-12-09T00:23:57.754Z,12.75
2022-12-09T00:29:00.631Z,23.23
2022-12-09T00:34:06.081Z,19.95
2022-12-09T00:39:08.628Z,10.18
2022-12-09T00:44:10.924Z,12.07
2022-12-09T00:49:12.982Z,23.88
2022-12-09T00:54:15.240Z,58.50
2022-12-09T00:59:17.615Z,35.35
2022-12-09T01:04:20.056Z,24.42
2022-12-09T01:09:24.907Z,13.35
2022-12-09T01:14:27.372Z,13.90
2022-12-09T01:19:29.238Z,17.25
2022-12-09T01:24:31.472Z,13.48
2022-12-09T01:29:33.964Z,9.00
2022-12-09T01:34:36.435Z,22.90
2022-12-09T01:39:38.687Z,9.77
2022-12-09T01:45:19.095Z,12.05
2022-12-09T01:50:21.333Z,9.73
2022-12-09T01:55:23.576Z,32.67
2022-12-09T02:00:25.769Z,16.52
2022-12-09T02:05:30.377Z,15.88
2022-12-09T02:10:35.970Z,12.38
2022-12-09T02:15:46.108Z,13.00
2022-12-09T02:20:57.461Z,22.65
2022-12-09T02:31:27.305Z,8.90
2022-12-09T02:36:36.312Z,10.25
2022-12-09T02:41:41.825Z,12.60
2022-12-09T02:46:44.459Z,19.05
2022-12-09T02:51:48.830Z,15.57
2022-12-09T02:56:55.727Z,17.95
2022-12-09T03:02:06.772Z,16.92
2022-12-09T03:07:25.350Z,13.25
2022-12-09T03:12:30.575Z,40.65
2022-12-09T03:17:37.815Z,26.75
2022-12-09T03:22:43.270Z,8.93
2022-12-09T03:28:21.346Z,14.82
2022-12-09T03:33:25.325Z,11.27
2022-12-09T03:38:31.152Z,9.13
2022-12-09T03:43:38.231Z,10.07
2022-12-09T03:48:40.215Z,11.80
2022-12-09T03:53:48.662Z,10.98
2022-12-09T03:58:55.415Z,10.15
2022-12-09T04:03:58.317Z,9.25
2022-12-09T04:09:02.570Z,13.13
2022-12-09T04:14:08.118Z,9.13
2022-12-09T04:19:14.541Z,8.43
2022-12-09T04:24:16.795Z,7.72
2022-12-09T04:29:19.006Z,9.65
2022-12-09T04:34:21.390Z,11.02
2022-12-09T04:39:23.605Z,10.38
2022-12-09T04:44:26.047Z,8.82
2022-12-09T04:49:28.881Z,12.93
2022-12-09T04:54:30.681Z,11.63
2022-12-09T04:59:33.076Z,12.52
2022-12-09T05:04:35.465Z,11.93
2022-12-09T05:09:38.396Z,9.52
2022-12-09T05:14:40.597Z,10.48
2022-12-09T05:19:43.118Z,16.10
2022-12-09T05:24:46.882Z,25.20
2022-12-09T05:29:49.485Z,15.07
2022-12-09T05:34:51.808Z,14.80
2022-12-09T05:39:54.145Z,22.40
2022-12-09T05:44:56.393Z,20.52
2022-12-09T05:50:02.973Z,20.02
2022-12-09T05:55:09.570Z,20.20
2022-12-09T06:00:12.896Z,19.02
2022-12-09T06:05:15.687Z,15.43
2022-12-09T06:10:18.745Z,14.27
2022-12-09T06:15:22.058Z,20.05
2022-12-09T06:20:26.319Z,16.65
2022-12-09T06:25:28.586Z,15.27
2022-12-09T06:30:31.818Z,14.50
2022-12-09T06:35:34.496Z,18.90
2022-12-09T06:40:41.964Z,15.57
2022-12-09T06:45:44.553Z,24.35
2022-12-09T06:50:46.474Z,15.38
2022-12-09T06:55:48.931Z,20.52
2022-12-09T07:00:51.227Z,19.05
2022-12-09T07:05:54.479Z,19.23
2022-12-09T07:10:57.258Z,27.75
2022-12-09T07:15:59.792Z,27.55
2022-12-09T07:21:18.865Z,28.48
2022-12-09T07:26:21.436Z,26.17
2022-12-09T07:31:25.844Z,25.02
2022-12-09T07:36:30.327Z,28.70
2022-12-09T07:41:33.109Z,25.73
2022-12-09T07:46:35.672Z,23.30
2022-12-09T07:51:37.640Z,26.75
2022-12-09T07:56:40.762Z,22.27
2022-12-09T08:01:43.176Z,27.08
2022-12-09T08:06:45.560Z,21.30
2022-12-09T08:11:48.005Z,26.70
2022-12-09T08:16:50.819Z,23.45
2022-12-09T08:21:54.943Z,25.25
2022-12-09T08:26:57.916Z,26.85
2022-12-09T08:31:59.999Z,30.38
2022-12-09T08:37:03.078Z,30.63
2022-12-09T08:42:05.533Z,27.95
2022-12-09T08:47:08.219Z,16.27
2022-12-09T08:52:10.795Z,24.50
2022-12-09T08:57:13.008Z,19.35
2022-12-09T09:02:15.411Z,15.85
2022-12-09T09:07:17.972Z,27.35
2022-12-09T09:12:20.891Z,20.00
2022-12-09T09:17:23.892Z,28.67
2022-12-09T09:22:27.443Z,18.83
2022-12-09T09:27:29.816Z,19.08
2022-12-09T09:32:32.983Z,18.83
2022-12-09T09:37:35.640Z,21.10
2022-12-09T09:42:47.960Z,26.65
2022-12-09T09:47:59.256Z,20.45
2022-12-09T09:53:12.191Z,20.80
2022-12-09T09:58:24.706Z,16.88
2022-12-09T10:03:47.603Z,21.58
2022-12-09T10:09:10.763Z,27.15
2022-12-09T10:14:35.241Z,33.10
2022-12-09T10:19:43.639Z,34.38
2022-12-09T10:24:52.474Z,30.90
2022-12-09T10:29:59.189Z,30.05
2022-12-09T10:35:02.445Z,36.03
2022-12-09T10:40:11.178Z,23.35
2022-12-09T10:45:13.567Z,24.13
2022-12-09T10:50:27.410Z,20.33
2022-12-09T10:55:39.846Z,23.83
2022-12-09T11:00:42.060Z,26.42
2022-12-09T11:05:44.491Z,24.65
2022-12-09T11:10:50.287Z,18.88
2022-12-09T11:16:01.585Z,30.10
2022-12-09T11:21:07.206Z,25.35
2022-12-09T11:26:31.079Z,25.40
2022-12-09T11:31:38.152Z,33.85
2022-12-09T11:36:46.709Z,29.17
2022-12-09T11:42:16.443Z,28.77
2022-12-09T11:47:57.740Z,31.15
2022-12-09T11:53:11.638Z,36.35
2022-12-09T11:58:26.121Z,26.33
2022-12-09T12:03:40.509Z,24.67
2022-12-09T12:08:46.616Z,28.58
2022-12-09T12:13:50.801Z,28.70
2022-12-09T12:19:07.441Z,27.98
2022-12-09T12:24:33.445Z,27.40
2022-12-09T12:30:00.865Z,28.67
2022-12-09T12:35:36.903Z,31.88
2022-12-09T12:41:03.561Z,32.10
2022-12-09T12:46:27.017Z,29.42
2022-12-09T12:51:34.871Z,36.08
2022-12-09T12:56:51.338Z,38.38
2022-12-09T13:02:07.802Z,38.00
2022-12-09T13:07:40.040Z,40.13
2022-12-09T13:12:54.371Z,36.87
2022-12-09T13:17:56.367Z,38.22
2022-12-09T13:23:14.456Z,42.13
2022-12-09T13:28:38.896Z,33.50
2022-12-09T13:34:17.460Z,39.20
2022-12-09T13:39:40.803Z,47.08
2022-12-09T13:44:42.815Z,44.05
2022-12-09T13:49:57.323Z,50.13
2022-12-09T13:54:59.523Z,39.60
2022-12-09T14:00:06.536Z,45.40
2022-12-09T14:05:20.996Z,41.25
2022-12-09T14:10:39.649Z,44.85
2022-12-09T14:15:41.807Z,37.95
2022-12-09T14:20:43.959Z,40.97
2022-12-09T14:25:51.121Z,38.60
2022-12-09T14:30:59.772Z,39.65
2022-12-09T14:36:14.151Z,37.33
2022-12-09T14:41:25.752Z,39.45
2022-12-09T14:46:31.103Z,47.10
2022-12-09T14:51:38.684Z,39.33
2022-12-09T14:56:46.748Z,48.92
2022-12-09T15:02:00.779Z,41.38
2022-12-09T15:07:11.534Z,41.88
2022-12-09T15:12:13.276Z,46.47
2022-12-09T15:17:28.862Z,43.60
2022-12-09T15:22:32.191Z,41.40
2022-12-09T15:27:33.985Z,51.22
2022-12-09T15:32:39.469Z,47.42
2022-12-09T15:37:41.813Z,51.13
2022-12-09T15:42:47.494Z,57.80
2022-12-09T15:48:02.277Z,48.75
2022-12-09T15:53:04.491Z,62.05
2022-12-09T15:58:10.580Z,53.58
2022-12-09T16:03:17.203Z,60.30
2022-12-09T16:08:19.602Z,54.30
2022-12-09T16:13:21.445Z,45.55
2022-12-09T16:18:49.661Z,49.65
2022-12-09T16:23:54.676Z,44.30
2022-12-09T16:29:05.797Z,46.65
2022-12-09T16:34:20.126Z,48.47
2022-12-09T16:39:24.878Z,55.63
2022-12-09T16:44:35.157Z,52.45
2022-12-09T16:49:37.406Z,48.00
2022-12-09T16:54:39.530Z,46.35
2022-12-09T16:59:42.699Z,44.55
2022-12-09T17:04:44.606Z,42.85
2022-12-09T17:09:46.813Z,40.30
2022-12-09T17:14:49.115Z,29.70
2022-12-09T17:19:51.268Z,34.97
2022-12-09T17:24:53.403Z,34.50
2022-12-09T17:29:55.497Z,29.75
2022-12-09T17:34:57.985Z,33.53
2022-12-09T17:40:03.517Z,36.88
2022-12-09T17:45:08.206Z,43.75
2022-12-09T17:50:11.001Z,50.72
2022-12-09T17:55:13.654Z,45.05
2022-12-09T18:00:15.953Z,42.53
2022-12-09T18:05:18.116Z,45.50
2022-12-09T18:10:20.313Z,45.83
2022-12-09T18:15:22.433Z,47.30
2022-12-09T18:20:24.544Z,43.20
2022-12-09T18:25:26.713Z,36.15
2022-12-09T18:30:28.933Z,39.30
2022-12-09T18:35:31.082Z,39.00
2022-12-09T18:40:33.351Z,38.30
2022-12-09T18:45:35.506Z,42.03
2022-12-09T18:50:37.729Z,42.53
2022-12-09T18:55:43.523Z,44.08
2022-12-09T19:00:45.734Z,45.63
2022-12-09T19:05:47.431Z,45.50
2022-12-09T19:10:55.255Z,42.70
2022-12-09T19:15:59.023Z,40.75
2022-12-09T19:21:09.067Z,37.22
2022-12-09T19:26:13.117Z,50.70
2022-12-09T19:31:25.414Z,48.38
2022-12-09T19:36:28.718Z,43.75
2022-12-09T19:41:30.410Z,33.70
2022-12-09T19:46:33.059Z,30.05
2022-12-09T19:51:34.921Z,39.47
2022-12-09T19:56:37.150Z,38.42
2022-12-09T20:01:42.763Z,44.58
2022-12-09T20:06:45.742Z,38.47
2022-12-09T20:11:47.872Z,28.85
2022-12-09T20:16:49.832Z,26.05
2022-12-09T20:21:51.629Z,47.50
2022-12-09T20:26:53.440Z,33.85
2022-12-09T20:31:55.254Z,31.27
2022-12-09T20:36:57.382Z,24.50
2022-12-09T20:41:59.681Z,45.30
2022-12-09T20:47:01.832Z,34.55
2022-12-09T20:52:04.038Z,29.88
2022-12-09T20:57:06.186Z,25.48
2022-12-09T21:02:13.857Z,35.25
2022-12-09T21:07:16.496Z,34.33
2022-12-09T21:12:18.633Z,39.40
2022-12-09T21:17:20.729Z,31.23
2022-12-09T21:22:22.905Z,32.13
2022-12-09T21:27:25.110Z,29.30
2022-12-09T21:32:27.088Z,25.38
2022-12-09T21:37:30.167Z,21.98
2022-12-09T21:42:31.845Z,25.05
2022-12-09T21:47:33.679Z,24.15
2022-12-09T21:52:35.791Z,22.10
2022-12-09T21:57:37.960Z,25.67
2022-12-09T22:02:41.346Z,23.77
2022-12-09T22:07:43.526Z,25.40
2022-12-09T22:12:45.718Z,28.52
2022-12-09T22:17:47.659Z,30.73
2022-12-09T22:22:49.833Z,30.80
2022-12-09T22:27:52.058Z,25.58
2022-12-09T22:32:53.753Z,24.33
2022-12-09T22:37:58.134Z,23.80
2022-12-09T22:43:01.390Z,25.90
2022-12-09T22:48:03.778Z,24.50
2022-12-09T22:53:05.493Z,27.35
2022-12-09T22:58:07.667Z,25.30
2022-12-09T23:03:09.852Z,26.63
2022-12-09T23:08:12.512Z,21.90
2022-12-09T23:13:14.671Z,33.88
2022-12-09T23:18:16.769Z,45.42
2022-12-09T23:23:19.607Z,29.15
2022-12-09T23:28:21.751Z,31.55
2022-12-09T23:33:23.817Z,32.92
2022-12-09T23:38:25.550Z,29.52
2022-12-09T23:43:31.277Z,29.80
2022-12-09T23:48:33.483Z,26.30
2022-12-09T23:53:35.590Z,30.42
2022-12-09T23:58:37.735Z,37.80
